sensor_id;sensor_type;location;lat;lon;timestamp;temperature;humidity
18658;DHT22;9458;50.942;5.074;2022-10-15T00:00:40;14.90;99.90
18658;DHT22;9458;50.942;5.074;2022-10-15T00:03:08;14.90;99.90
18658;DHT22;9458;50.942;5.074;2022-10-15T00:05:36;14.90;99.90
18658;DHT22;9458;50.942;5.074;2022-10-15T00:08:04;14.90;99.90
18658;DHT22;9458;50.942;5.074;2022-10-15T00:10:32;14.90;99.90
18658;DHT22;9458;50.942;5.074;2022-10-15T00:12:59;14.90;99.90
18658;DHT22;9458;50.942;5.074;2022-10-15T00:15:27;14.90;99.90
18658;DHT22;9458;50.942;5.074;2022-10-15T00:17:55;14.90;99.90
18658;DHT22;9458;50.942;5.074;2022-10-15T00:20:28;14.90;99.90
18658;DHT22;9458;50.942;5.074;2022-10-15T00:22:59;14.90;99.90
18658;DHT22;9458;50.942;5.074;2022-10-15T00:25:27;14.90;99.90
18658;DHT22;9458;50.942;5.074;2022-10-15T00:27:56;14.90;99.90
18658;DHT22;9458;50.942;5.074;2022-10-15T00:30:24;14.90;99.90
18658;DHT22;9458;50.942;5.074;2022-10-15T00:32:52;14.90;99.90
18658;DHT22;9458;50.942;5.074;2022-10-15T00:35:19;14.90;99.90
18658;DHT22;9458;50.942;5.074;2022-10-15T00:37:49;14.90;99.90
18658;DHT22;9458;50.942;5.074;2022-10-15T00:40:17;14.80;99.90
18658;DHT22;9458;50.942;5.074;2022-10-15T00:42:44;14.80;99.90
18658;DHT22;9458;50.942;5.074;2022-10-15T00:45:13;14.90;99.90
18658;DHT22;9458;50.942;5.074;2022-10-15T00:47:44;14.90;99.90
18658;DHT22;9458;50.942;5.074;2022-10-15T00:50:14;14.80;99.90
18658;DHT22;9458;50.942;5.074;2022-10-15T00:52:45;14.80;99.90
18658;DHT22;9458;50.942;5.074;2022-10-15T00:55:27;14.80;99.90
18658;DHT22;9458;50.942;5.074;2022-10-15T00:57:58;14.80;99.90
18658;DHT22;9458;50.942;5.074;2022-10-15T01:00:27;14.80;99.90
18658;DHT22;9458;50.942;5.074;2022-10-15T01:02:54;14.90;99.90
18658;DHT22;9458;50.942;5.074;2022-10-15T01:05:22;14.90;99.90
18658;DHT22;9458;50.942;5.074;2022-10-15T01:07:50;14.90;99.90
18658;DHT22;9458;50.942;5.074;2022-10-15T01:10:18;14.80;99.90
18658;DHT22;9458;50.942;5.074;2022-10-15T01:13:06;14.80;99.90
18658;DHT22;9458;50.942;5.074;2022-10-15T01:15:42;14.80;99.90
18658;DHT22;9458;50.942;5.074;2022-10-15T01:18:14;14.80;99.90
18658;DHT22;9458;50.942;5.074;2022-10-15T01:20:53;14.80;99.90
18658;DHT22;9458;50.942;5.074;2022-10-15T01:23:58;14.70;99.90
18658;DHT22;9458;50.942;5.074;2022-10-15T01:27:14;14.70;99.90
18658;DHT22;9458;50.942;5.074;2022-10-15T01:32:41;14.70;99.90
18658;DHT22;9458;50.942;5.074;2022-10-15T01:35:18;14.70;99.90
18658;DHT22;9458;50.942;5.074;2022-10-15T01:37:53;14.70;99.90
18658;DHT22;9458;50.942;5.074;2022-10-15T01:40:25;14.70;99.90
18658;DHT22;9458;50.942;5.074;2022-10-15T01:42:56;14.60;99.90
18658;DHT22;9458;50.942;5.074;2022-10-15T01:45:28;14.60;99.90
18658;DHT22;9458;50.942;5.074;2022-10-15T01:48:01;14.70;99.90
18658;DHT22;9458;50.942;5.074;2022-10-15T01:50:32;14.60;99.90
18658;DHT22;9458;50.942;5.074;2022-10-15T01:53:02;14.60;99.90
18658;DHT22;9458;50.942;5.074;2022-10-15T01:55:31;14.70;99.90
18658;DHT22;9458;50.942;5.074;2022-10-15T01:58:00;14.60;99.90
18658;DHT22;9458;50.942;5.074;2022-10-15T02:00:29;14.70;99.90
18658;DHT22;9458;50.942;5.074;2022-10-15T02:03:00;14.60;99.90
18658;DHT22;9458;50.942;5.074;2022-10-15T02:05:32;14.70;99.90
18658;DHT22;9458;50.942;5.074;2022-10-15T02:08:10;14.60;99.90
18658;DHT22;9458;50.942;5.074;2022-10-15T02:10:52;14.70;99.90
18658;DHT22;9458;50.942;5.074;2022-10-15T02:13:27;14.70;99.90
18658;DHT22;9458;50.942;5.074;2022-10-15T02:16:02;14.70;99.90
18658;DHT22;9458;50.942;5.074;2022-10-15T02:18:38;14.70;99.90
18658;DHT22;9458;50.942;5.074;2022-10-15T02:21:11;14.70;99.90
18658;DHT22;9458;50.942;5.074;2022-10-15T02:23:46;14.70;99.90
18658;DHT22;9458;50.942;5.074;2022-10-15T02:26:16;14.60;99.90
18658;DHT22;9458;50.942;5.074;2022-10-15T02:28:49;14.60;99.90
18658;DHT22;9458;50.942;5.074;2022-10-15T02:31:17;14.70;99.90
18658;DHT22;9458;50.942;5.074;2022-10-15T02:33:47;14.70;99.90
18658;DHT22;9458;50.942;5.074;2022-10-15T02:36:17;14.70;99.90
18658;DHT22;9458;50.942;5.074;2022-10-15T02:38:47;14.70;99.90
18658;DHT22;9458;50.942;5.074;2022-10-15T02:41:22;14.70;99.90
18658;DHT22;9458;50.942;5.074;2022-10-15T02:43:50;14.70;99.90
18658;DHT22;9458;50.942;5.074;2022-10-15T02:46:18;14.70;99.90
18658;DHT22;9458;50.942;5.074;2022-10-15T02:48:47;14.70;99.90
18658;DHT22;9458;50.942;5.074;2022-10-15T02:51:14;14.70;99.90
18658;DHT22;9458;50.942;5.074;2022-10-15T02:53:41;14.70;99.90
18658;DHT22;9458;50.942;5.074;2022-10-15T02:56:09;14.70;99.90
18658;DHT22;9458;50.942;5.074;2022-10-15T02:58:36;14.70;99.90
18658;DHT22;9458;50.942;5.074;2022-10-15T03:01:04;14.60;99.90
18658;DHT22;9458;50.942;5.074;2022-10-15T03:03:34;14.70;99.90
18658;DHT22;9458;50.942;5.074;2022-10-15T03:06:03;14.60;99.90
18658;DHT22;9458;50.942;5.074;2022-10-15T03:08:31;14.60;99.90
18658;DHT22;9458;50.942;5.074;2022-10-15T03:10:59;14.60;99.90
18658;DHT22;9458;50.942;5.074;2022-10-15T03:13:27;14.60;99.90
18658;DHT22;9458;50.942;5.074;2022-10-15T03:15:54;14.60;99.90
18658;DHT22;9458;50.942;5.074;2022-10-15T03:18:22;14.60;99.90
18658;DHT22;9458;50.942;5.074;2022-10-15T03:20:53;14.60;99.90
18658;DHT22;9458;50.942;5.074;2022-10-15T03:23:22;14.60;99.90
18658;DHT22;9458;50.942;5.074;2022-10-15T03:25:50;14.60;99.90
18658;DHT22;9458;50.942;5.074;2022-10-15T03:28:18;14.60;99.90
18658;DHT22;9458;50.942;5.074;2022-10-15T03:30:45;14.60;99.90
18658;DHT22;9458;50.942;5.074;2022-10-15T03:33:12;14.60;99.90
18658;DHT22;9458;50.942;5.074;2022-10-15T03:35:40;14.60;99.90
18658;DHT22;9458;50.942;5.074;2022-10-15T03:38:08;14.50;99.90
18658;DHT22;9458;50.942;5.074;2022-10-15T03:40:37;14.50;99.90
18658;DHT22;9458;50.942;5.074;2022-10-15T03:43:04;14.50;99.90
18658;DHT22;9458;50.942;5.074;2022-10-15T03:45:31;14.50;99.90
18658;DHT22;9458;50.942;5.074;2022-10-15T03:47:59;14.40;99.90
18658;DHT22;9458;50.942;5.074;2022-10-15T03:50:27;14.40;99.90
18658;DHT22;9458;50.942;5.074;2022-10-15T03:52:55;14.40;99.90
18658;DHT22;9458;50.942;5.074;2022-10-15T03:55:23;14.30;99.90
18658;DHT22;9458;50.942;5.074;2022-10-15T03:57:52;14.30;99.90
18658;DHT22;9458;50.942;5.074;2022-10-15T04:00:20;14.30;99.90
18658;DHT22;9458;50.942;5.074;2022-10-15T04:02:47;14.30;99.90
18658;DHT22;9458;50.942;5.074;2022-10-15T04:05:14;14.20;99.90
18658;DHT22;9458;50.942;5.074;2022-10-15T04:07:42;14.20;99.90
18658;DHT22;9458;50.942;5.074;2022-10-15T04:10:09;14.10;99.90
18658;DHT22;9458;50.942;5.074;2022-10-15T04:12:37;14.10;99.90
18658;DHT22;9458;50.942;5.074;2022-10-15T04:15:07;14.10;99.90
18658;DHT22;9458;50.942;5.074;2022-10-15T04:17:35;14.10;99.90
18658;DHT22;9458;50.942;5.074;2022-10-15T04:20:03;14.00;99.90
18658;DHT22;9458;50.942;5.074;2022-10-15T04:22:31;14.00;99.90
18658;DHT22;9458;50.942;5.074;2022-10-15T04:24:59;14.00;99.90
18658;DHT22;9458;50.942;5.074;2022-10-15T04:27:27;14.00;99.90
18658;DHT22;9458;50.942;5.074;2022-10-15T04:29:54;14.00;99.90
18658;DHT22;9458;50.942;5.074;2022-10-15T04:32:23;14.00;99.90
18658;DHT22;9458;50.942;5.074;2022-10-15T04:34:51;14.00;99.90
18658;DHT22;9458;50.942;5.074;2022-10-15T04:37:18;14.00;99.90
18658;DHT22;9458;50.942;5.074;2022-10-15T04:39:46;14.00;99.90
18658;DHT22;9458;50.942;5.074;2022-10-15T04:42:13;14.00;99.90
18658;DHT22;9458;50.942;5.074;2022-10-15T04:44:41;14.00;99.90
18658;DHT22;9458;50.942;5.074;2022-10-15T04:47:08;14.00;99.90
18658;DHT22;9458;50.942;5.074;2022-10-15T04:49:36;14.00;99.90
18658;DHT22;9458;50.942;5.074;2022-10-15T04:52:04;14.00;99.90
18658;DHT22;9458;50.942;5.074;2022-10-15T04:54:32;14.00;99.90
18658;DHT22;9458;50.942;5.074;2022-10-15T04:56:59;14.00;99.90
18658;DHT22;9458;50.942;5.074;2022-10-15T04:59:27;14.00;99.90
18658;DHT22;9458;50.942;5.074;2022-10-15T05:01:54;14.00;99.90
18658;DHT22;9458;50.942;5.074;2022-10-15T05:04:21;14.00;99.90
18658;DHT22;9458;50.942;5.074;2022-10-15T05:06:51;13.90;99.90
18658;DHT22;9458;50.942;5.074;2022-10-15T05:09:18;13.90;99.90
18658;DHT22;9458;50.942;5.074;2022-10-15T05:11:45;13.90;99.90
18658;DHT22;9458;50.942;5.074;2022-10-15T05:14:13;13.90;99.90
18658;DHT22;9458;50.942;5.074;2022-10-15T05:16:41;13.90;99.90
18658;DHT22;9458;50.942;5.074;2022-10-15T05:19:10;13.90;99.90
18658;DHT22;9458;50.942;5.074;2022-10-15T05:21:38;13.90;99.90
18658;DHT22;9458;50.942;5.074;2022-10-15T05:24:07;13.90;99.90
18658;DHT22;9458;50.942;5.074;2022-10-15T05:26:35;13.90;99.90
18658;DHT22;9458;50.942;5.074;2022-10-15T05:29:02;13.90;99.90
18658;DHT22;9458;50.942;5.074;2022-10-15T05:31:31;13.90;99.90
18658;DHT22;9458;50.942;5.074;2022-10-15T05:34:04;13.90;99.90
18658;DHT22;9458;50.942;5.074;2022-10-15T05:36:32;13.90;99.90
18658;DHT22;9458;50.942;5.074;2022-10-15T05:39:01;13.90;99.90
18658;DHT22;9458;50.942;5.074;2022-10-15T05:41:30;13.90;99.90
18658;DHT22;9458;50.942;5.074;2022-10-15T05:43:58;13.90;99.90
18658;DHT22;9458;50.942;5.074;2022-10-15T05:46:26;13.80;99.90
18658;DHT22;9458;50.942;5.074;2022-10-15T05:48:54;13.80;99.90
18658;DHT22;9458;50.942;5.074;2022-10-15T05:51:23;13.90;99.90
18658;DHT22;9458;50.942;5.074;2022-10-15T05:53:52;13.90;99.90
18658;DHT22;9458;50.942;5.074;2022-10-15T05:56:21;13.90;99.90
18658;DHT22;9458;50.942;5.074;2022-10-15T05:58:50;13.90;99.90
18658;DHT22;9458;50.942;5.074;2022-10-15T06:01:17;13.90;99.90
18658;DHT22;9458;50.942;5.074;2022-10-15T06:03:45;14.00;99.90
18658;DHT22;9458;50.942;5.074;2022-10-15T06:06:14;14.00;99.90
18658;DHT22;9458;50.942;5.074;2022-10-15T06:08:42;14.00;99.90
18658;DHT22;9458;50.942;5.074;2022-10-15T06:11:10;14.00;99.90
18658;DHT22;9458;50.942;5.074;2022-10-15T06:13:38;14.00;99.90
18658;DHT22;9458;50.942;5.074;2022-10-15T06:16:08;14.10;99.90
18658;DHT22;9458;50.942;5.074;2022-10-15T06:18:35;14.10;99.90
18658;DHT22;9458;50.942;5.074;2022-10-15T06:21:04;14.10;99.90
18658;DHT22;9458;50.942;5.074;2022-10-15T06:23:31;14.10;99.90
18658;DHT22;9458;50.942;5.074;2022-10-15T06:26:01;14.10;99.90
18658;DHT22;9458;50.942;5.074;2022-10-15T06:28:29;14.20;99.90
18658;DHT22;9458;50.942;5.074;2022-10-15T06:30:57;14.20;99.90
18658;DHT22;9458;50.942;5.074;2022-10-15T06:33:26;14.20;99.90
18658;DHT22;9458;50.942;5.074;2022-10-15T06:35:54;14.20;99.90
18658;DHT22;9458;50.942;5.074;2022-10-15T06:38:22;14.30;99.90
18658;DHT22;9458;50.942;5.074;2022-10-15T06:40:50;14.30;99.90
18658;DHT22;9458;50.942;5.074;2022-10-15T06:43:17;14.30;99.90
18658;DHT22;9458;50.942;5.074;2022-10-15T06:45:44;14.30;99.90
18658;DHT22;9458;50.942;5.074;2022-10-15T06:48:11;14.30;99.90
18658;DHT22;9458;50.942;5.074;2022-10-15T06:50:40;14.40;99.90
18658;DHT22;9458;50.942;5.074;2022-10-15T06:53:08;14.40;99.90
18658;DHT22;9458;50.942;5.074;2022-10-15T06:55:35;14.40;99.90
18658;DHT22;9458;50.942;5.074;2022-10-15T06:58:04;14.40;99.90
18658;DHT22;9458;50.942;5.074;2022-10-15T07:00:31;14.40;99.90
18658;DHT22;9458;50.942;5.074;2022-10-15T07:03:02;14.50;99.90
18658;DHT22;9458;50.942;5.074;2022-10-15T07:05:29;14.50;99.90
18658;DHT22;9458;50.942;5.074;2022-10-15T07:07:58;14.50;99.90
18658;DHT22;9458;50.942;5.074;2022-10-15T07:10:27;14.60;99.90
18658;DHT22;9458;50.942;5.074;2022-10-15T07:12:54;14.60;99.90
18658;DHT22;9458;50.942;5.074;2022-10-15T07:15:21;14.60;99.90
18658;DHT22;9458;50.942;5.074;2022-10-15T07:17:50;14.60;99.90
18658;DHT22;9458;50.942;5.074;2022-10-15T07:20:18;14.60;99.90
18658;DHT22;9458;50.942;5.074;2022-10-15T07:22:46;14.70;99.90
18658;DHT22;9458;50.942;5.074;2022-10-15T07:25:15;14.70;99.90
18658;DHT22;9458;50.942;5.074;2022-10-15T07:27:42;14.80;99.90
18658;DHT22;9458;50.942;5.074;2022-10-15T07:30:10;14.90;99.90
18658;DHT22;9458;50.942;5.074;2022-10-15T07:32:37;14.90;99.90
18658;DHT22;9458;50.942;5.074;2022-10-15T07:35:05;14.90;99.90
18658;DHT22;9458;50.942;5.074;2022-10-15T07:37:33;14.90;99.90
18658;DHT22;9458;50.942;5.074;2022-10-15T07:40:00;15.00;99.90
18658;DHT22;9458;50.942;5.074;2022-10-15T07:42:29;15.00;99.90
18658;DHT22;9458;50.942;5.074;2022-10-15T07:44:56;15.10;99.90
18658;DHT22;9458;50.942;5.074;2022-10-15T07:47:24;15.20;99.90
18658;DHT22;9458;50.942;5.074;2022-10-15T07:49:51;15.20;99.90
18658;DHT22;9458;50.942;5.074;2022-10-15T07:52:19;15.20;99.90
18658;DHT22;9458;50.942;5.074;2022-10-15T07:54:46;15.20;99.90
18658;DHT22;9458;50.942;5.074;2022-10-15T07:57:13;15.30;99.90
18658;DHT22;9458;50.942;5.074;2022-10-15T07:59:42;15.30;99.90
18658;DHT22;9458;50.942;5.074;2022-10-15T08:02:13;15.40;99.90
18658;DHT22;9458;50.942;5.074;2022-10-15T08:04:41;15.60;99.90
18658;DHT22;9458;50.942;5.074;2022-10-15T08:07:08;15.70;99.90
18658;DHT22;9458;50.942;5.074;2022-10-15T08:09:36;15.90;99.90
18658;DHT22;9458;50.942;5.074;2022-10-15T08:12:04;15.90;99.90
18658;DHT22;9458;50.942;5.074;2022-10-15T08:14:32;16.00;99.90
18658;DHT22;9458;50.942;5.074;2022-10-15T08:17:02;15.90;99.90
18658;DHT22;9458;50.942;5.074;2022-10-15T08:19:29;15.90;99.90
18658;DHT22;9458;50.942;5.074;2022-10-15T08:21:57;15.90;99.90
18658;DHT22;9458;50.942;5.074;2022-10-15T08:24:25;15.80;99.90
18658;DHT22;9458;50.942;5.074;2022-10-15T08:26:52;15.80;99.90
18658;DHT22;9458;50.942;5.074;2022-10-15T08:29:20;15.80;99.90
18658;DHT22;9458;50.942;5.074;2022-10-15T08:31:47;15.80;99.90
18658;DHT22;9458;50.942;5.074;2022-10-15T08:34:20;15.70;99.90
18658;DHT22;9458;50.942;5.074;2022-10-15T08:36:47;15.70;99.90
18658;DHT22;9458;50.942;5.074;2022-10-15T08:39:15;15.70;99.90
18658;DHT22;9458;50.942;5.074;2022-10-15T08:41:46;15.70;99.90
18658;DHT22;9458;50.942;5.074;2022-10-15T08:44:20;15.80;99.90
18658;DHT22;9458;50.942;5.074;2022-10-15T08:46:51;15.80;99.90
18658;DHT22;9458;50.942;5.074;2022-10-15T08:49:31;15.90;99.90
18658;DHT22;9458;50.942;5.074;2022-10-15T08:52:07;15.90;99.90
18658;DHT22;9458;50.942;5.074;2022-10-15T08:54:40;15.90;99.90
18658;DHT22;9458;50.942;5.074;2022-10-15T08:57:16;15.90;99.90
18658;DHT22;9458;50.942;5.074;2022-10-15T08:59:50;15.90;99.90
18658;DHT22;9458;50.942;5.074;2022-10-15T09:02:23;15.90;99.90
18658;DHT22;9458;50.942;5.074;2022-10-15T09:04:57;16.00;99.90
18658;DHT22;9458;50.942;5.074;2022-10-15T09:07:34;16.00;99.90
18658;DHT22;9458;50.942;5.074;2022-10-15T09:10:11;16.10;99.90
18658;DHT22;9458;50.942;5.074;2022-10-15T09:12:47;16.10;99.90
18658;DHT22;9458;50.942;5.074;2022-10-15T09:15:18;16.10;99.90
18658;DHT22;9458;50.942;5.074;2022-10-15T09:17:51;16.10;99.90
18658;DHT22;9458;50.942;5.074;2022-10-15T09:20:24;16.10;99.90
18658;DHT22;9458;50.942;5.074;2022-10-15T09:22:52;16.10;99.90
18658;DHT22;9458;50.942;5.074;2022-10-15T09:25:22;16.10;99.90
18658;DHT22;9458;50.942;5.074;2022-10-15T09:27:51;16.10;99.90
18658;DHT22;9458;50.942;5.074;2022-10-15T09:30:28;16.10;99.90
18658;DHT22;9458;50.942;5.074;2022-10-15T09:33:04;16.10;99.90
18658;DHT22;9458;50.942;5.074;2022-10-15T09:35:38;16.10;99.90
18658;DHT22;9458;50.942;5.074;2022-10-15T09:38:29;16.20;99.90
18658;DHT22;9458;50.942;5.074;2022-10-15T09:41:07;16.20;99.90
18658;DHT22;9458;50.942;5.074;2022-10-15T09:43:45;16.20;99.90
18658;DHT22;9458;50.942;5.074;2022-10-15T09:46:14;16.20;99.90
18658;DHT22;9458;50.942;5.074;2022-10-15T09:48:45;16.20;99.90
18658;DHT22;9458;50.942;5.074;2022-10-15T09:51:22;16.30;99.90
18658;DHT22;9458;50.942;5.074;2022-10-15T09:53:58;16.30;99.90
18658;DHT22;9458;50.942;5.074;2022-10-15T09:56:32;16.40;99.90
18658;DHT22;9458;50.942;5.074;2022-10-15T09:59:01;16.30;99.90
18658;DHT22;9458;50.942;5.074;2022-10-15T10:01:30;16.40;99.90
18658;DHT22;9458;50.942;5.074;2022-10-15T10:04:10;16.40;99.90
18658;DHT22;9458;50.942;5.074;2022-10-15T10:06:49;16.50;99.90
18658;DHT22;9458;50.942;5.074;2022-10-15T10:09:19;16.50;99.90
18658;DHT22;9458;50.942;5.074;2022-10-15T10:11:51;16.60;99.90
18658;DHT22;9458;50.942;5.074;2022-10-15T10:14:25;16.60;99.90
18658;DHT22;9458;50.942;5.074;2022-10-15T10:17:14;16.60;99.90
18658;DHT22;9458;50.942;5.074;2022-10-15T10:19:43;16.70;99.90
18658;DHT22;9458;50.942;5.074;2022-10-15T10:22:18;16.80;99.90
18658;DHT22;9458;50.942;5.074;2022-10-15T10:24:46;16.90;99.90
18658;DHT22;9458;50.942;5.074;2022-10-15T10:27:20;16.90;99.90
18658;DHT22;9458;50.942;5.074;2022-10-15T10:29:53;17.00;99.90
18658;DHT22;9458;50.942;5.074;2022-10-15T10:32:28;17.00;99.90
18658;DHT22;9458;50.942;5.074;2022-10-15T10:34:58;17.00;99.90
18658;DHT22;9458;50.942;5.074;2022-10-15T10:37:29;17.10;99.90
18658;DHT22;9458;50.942;5.074;2022-10-15T10:40:21;17.10;99.90
18658;DHT22;9458;50.942;5.074;2022-10-15T10:43:09;17.20;99.90
18658;DHT22;9458;50.942;5.074;2022-10-15T10:45:37;17.30;99.90
18658;DHT22;9458;50.942;5.074;2022-10-15T10:48:18;17.30;99.90
18658;DHT22;9458;50.942;5.074;2022-10-15T10:50:48;17.30;99.90
18658;DHT22;9458;50.942;5.074;2022-10-15T10:53:24;17.30;99.90
18658;DHT22;9458;50.942;5.074;2022-10-15T10:55:54;17.30;99.90
18658;DHT22;9458;50.942;5.074;2022-10-15T10:58:23;17.40;99.90
18658;DHT22;9458;50.942;5.074;2022-10-15T11:00:54;17.40;99.90
18658;DHT22;9458;50.942;5.074;2022-10-15T11:03:29;17.40;99.90
18658;DHT22;9458;50.942;5.074;2022-10-15T11:06:05;17.40;99.90
18658;DHT22;9458;50.942;5.074;2022-10-15T11:08:44;17.40;99.90
18658;DHT22;9458;50.942;5.074;2022-10-15T11:11:19;17.40;99.90
18658;DHT22;9458;50.942;5.074;2022-10-15T11:13:55;17.50;99.90
18658;DHT22;9458;50.942;5.074;2022-10-15T11:16:32;17.50;99.90
18658;DHT22;9458;50.942;5.074;2022-10-15T11:19:11;17.60;99.90
18658;DHT22;9458;50.942;5.074;2022-10-15T11:21:50;17.70;99.90
18658;DHT22;9458;50.942;5.074;2022-10-15T11:24:31;17.70;99.90
18658;DHT22;9458;50.942;5.074;2022-10-15T11:27:14;17.80;99.90
18658;DHT22;9458;50.942;5.074;2022-10-15T11:29:53;17.80;99.90
18658;DHT22;9458;50.942;5.074;2022-10-15T11:32:32;17.90;99.90
18658;DHT22;9458;50.942;5.074;2022-10-15T11:35:19;17.90;99.90
18658;DHT22;9458;50.942;5.074;2022-10-15T11:37:58;18.00;99.90
18658;DHT22;9458;50.942;5.074;2022-10-15T11:40:34;18.00;99.90
18658;DHT22;9458;50.942;5.074;2022-10-15T11:43:14;17.90;99.90
18658;DHT22;9458;50.942;5.074;2022-10-15T11:45:54;17.90;99.90
18658;DHT22;9458;50.942;5.074;2022-10-15T11:48:37;17.80;99.90
18658;DHT22;9458;50.942;5.074;2022-10-15T11:51:16;17.80;99.90
18658;DHT22;9458;50.942;5.074;2022-10-15T11:53:55;17.80;99.90
18658;DHT22;9458;50.942;5.074;2022-10-15T11:56:29;17.80;99.90
18658;DHT22;9458;50.942;5.074;2022-10-15T11:59:02;17.80;99.90
18658;DHT22;9458;50.942;5.074;2022-10-15T12:01:36;17.80;99.90
18658;DHT22;9458;50.942;5.074;2022-10-15T12:04:18;17.80;99.90
18658;DHT22;9458;50.942;5.074;2022-10-15T12:06:51;17.80;99.90
18658;DHT22;9458;50.942;5.074;2022-10-15T12:09:23;17.80;99.90
18658;DHT22;9458;50.942;5.074;2022-10-15T12:11:58;17.80;99.90
18658;DHT22;9458;50.942;5.074;2022-10-15T12:14:33;17.80;99.90
18658;DHT22;9458;50.942;5.074;2022-10-15T12:17:07;17.90;99.90
18658;DHT22;9458;50.942;5.074;2022-10-15T12:19:40;17.90;99.90
18658;DHT22;9458;50.942;5.074;2022-10-15T12:22:10;17.90;99.90
18658;DHT22;9458;50.942;5.074;2022-10-15T12:24:52;18.00;99.90
18658;DHT22;9458;50.942;5.074;2022-10-15T12:27:25;18.00;99.90
18658;DHT22;9458;50.942;5.074;2022-10-15T12:30:22;17.90;99.90
18658;DHT22;9458;50.942;5.074;2022-10-15T12:32:51;17.90;99.90
18658;DHT22;9458;50.942;5.074;2022-10-15T12:35:22;17.80;99.90
18658;DHT22;9458;50.942;5.074;2022-10-15T12:37:51;17.80;99.90
18658;DHT22;9458;50.942;5.074;2022-10-15T12:40:27;17.70;99.90
18658;DHT22;9458;50.942;5.074;2022-10-15T12:42:58;17.60;99.90
18658;DHT22;9458;50.942;5.074;2022-10-15T12:45:34;17.50;99.90
18658;DHT22;9458;50.942;5.074;2022-10-15T12:48:22;17.40;99.90
18658;DHT22;9458;50.942;5.074;2022-10-15T12:54:33;17.40;99.90
18658;DHT22;9458;50.942;5.074;2022-10-15T13:03:32;17.50;99.90
18658;DHT22;9458;50.942;5.074;2022-10-15T13:06:20;17.60;99.90
18658;DHT22;9458;50.942;5.074;2022-10-15T13:08:51;17.60;99.90
18658;DHT22;9458;50.942;5.074;2022-10-15T13:11:23;17.60;99.90
18658;DHT22;9458;50.942;5.074;2022-10-15T13:13:55;17.70;99.90
18658;DHT22;9458;50.942;5.074;2022-10-15T13:16:26;17.70;99.90
18658;DHT22;9458;50.942;5.074;2022-10-15T13:18:55;17.70;99.90
18658;DHT22;9458;50.942;5.074;2022-10-15T13:21:46;17.60;99.90
18658;DHT22;9458;50.942;5.074;2022-10-15T13:24:18;17.60;99.90
18658;DHT22;9458;50.942;5.074;2022-10-15T13:26:46;17.60;99.90
18658;DHT22;9458;50.942;5.074;2022-10-15T13:29:15;17.60;99.90
18658;DHT22;9458;50.942;5.074;2022-10-15T13:31:45;17.70;99.90
18658;DHT22;9458;50.942;5.074;2022-10-15T13:34:24;17.70;99.90
18658;DHT22;9458;50.942;5.074;2022-10-15T13:36:57;17.70;99.90
18658;DHT22;9458;50.942;5.074;2022-10-15T13:39:30;17.80;99.90
18658;DHT22;9458;50.942;5.074;2022-10-15T13:42:12;17.80;99.90
18658;DHT22;9458;50.942;5.074;2022-10-15T13:44:40;17.80;99.90
18658;DHT22;9458;50.942;5.074;2022-10-15T13:47:30;17.70;99.90
18658;DHT22;9458;50.942;5.074;2022-10-15T13:50:20;17.80;99.90
18658;DHT22;9458;50.942;5.074;2022-10-15T13:52:51;17.80;99.90
18658;DHT22;9458;50.942;5.074;2022-10-15T13:55:21;17.80;99.90
18658;DHT22;9458;50.942;5.074;2022-10-15T13:57:50;17.80;99.90
18658;DHT22;9458;50.942;5.074;2022-10-15T14:00:25;17.80;99.90
18658;DHT22;9458;50.942;5.074;2022-10-15T14:03:17;17.70;99.90
18658;DHT22;9458;50.942;5.074;2022-10-15T14:06:21;17.70;99.90
18658;DHT22;9458;50.942;5.074;2022-10-15T14:08:50;17.70;99.90
18658;DHT22;9458;50.942;5.074;2022-10-15T14:11:18;17.60;99.90
18658;DHT22;9458;50.942;5.074;2022-10-15T14:13:48;17.60;99.90
18658;DHT22;9458;50.942;5.074;2022-10-15T14:16:19;17.60;99.90
18658;DHT22;9458;50.942;5.074;2022-10-15T14:18:50;17.60;99.90
18658;DHT22;9458;50.942;5.074;2022-10-15T14:21:20;17.60;99.90
18658;DHT22;9458;50.942;5.074;2022-10-15T14:24:02;17.50;99.90
18658;DHT22;9458;50.942;5.074;2022-10-15T14:26:32;17.50;99.90
18658;DHT22;9458;50.942;5.074;2022-10-15T14:29:00;17.50;99.90
18658;DHT22;9458;50.942;5.074;2022-10-15T14:31:36;17.50;99.90
18658;DHT22;9458;50.942;5.074;2022-10-15T14:34:30;17.50;99.90
18658;DHT22;9458;50.942;5.074;2022-10-15T14:40:19;17.60;99.90
18658;DHT22;9458;50.942;5.074;2022-10-15T14:42:49;17.60;99.90
18658;DHT22;9458;50.942;5.074;2022-10-15T14:45:28;17.60;99.90
18658;DHT22;9458;50.942;5.074;2022-10-15T14:47:57;17.60;99.90
18658;DHT22;9458;50.942;5.074;2022-10-15T14:50:29;17.60;99.90
18658;DHT22;9458;50.942;5.074;2022-10-15T14:52:58;17.60;99.90
18658;DHT22;9458;50.942;5.074;2022-10-15T14:55:29;17.60;99.90
18658;DHT22;9458;50.942;5.074;2022-10-15T14:57:59;17.60;99.90
18658;DHT22;9458;50.942;5.074;2022-10-15T15:00:31;17.60;99.90
18658;DHT22;9458;50.942;5.074;2022-10-15T15:03:02;17.60;99.90
18658;DHT22;9458;50.942;5.074;2022-10-15T15:05:43;17.60;99.90
18658;DHT22;9458;50.942;5.074;2022-10-15T15:08:11;17.50;99.90
18658;DHT22;9458;50.942;5.074;2022-10-15T15:10:38;17.50;99.90
18658;DHT22;9458;50.942;5.074;2022-10-15T15:13:06;17.40;99.90
18658;DHT22;9458;50.942;5.074;2022-10-15T15:15:39;17.40;99.90
18658;DHT22;9458;50.942;5.074;2022-10-15T15:18:08;17.40;99.90
18658;DHT22;9458;50.942;5.074;2022-10-15T15:20:39;17.40;99.90
18658;DHT22;9458;50.942;5.074;2022-10-15T15:23:13;17.40;99.90
18658;DHT22;9458;50.942;5.074;2022-10-15T15:25:40;17.40;99.90
18658;DHT22;9458;50.942;5.074;2022-10-15T15:28:11;17.40;99.90
18658;DHT22;9458;50.942;5.074;2022-10-15T15:30:39;17.50;99.90
18658;DHT22;9458;50.942;5.074;2022-10-15T15:33:09;17.50;99.90
18658;DHT22;9458;50.942;5.074;2022-10-15T15:35:42;17.50;99.90
18658;DHT22;9458;50.942;5.074;2022-10-15T15:38:15;17.40;99.90
18658;DHT22;9458;50.942;5.074;2022-10-15T15:40:42;17.40;99.90
18658;DHT22;9458;50.942;5.074;2022-10-15T15:43:11;17.40;99.90
18658;DHT22;9458;50.942;5.074;2022-10-15T15:45:39;17.30;99.90
18658;DHT22;9458;50.942;5.074;2022-10-15T15:48:07;17.30;99.90
18658;DHT22;9458;50.942;5.074;2022-10-15T15:50:35;17.20;99.90
18658;DHT22;9458;50.942;5.074;2022-10-15T15:53:04;17.20;99.90
18658;DHT22;9458;50.942;5.074;2022-10-15T15:55:31;17.20;99.90
18658;DHT22;9458;50.942;5.074;2022-10-15T15:57:59;17.10;99.90
18658;DHT22;9458;50.942;5.074;2022-10-15T16:00:26;17.10;99.90
18658;DHT22;9458;50.942;5.074;2022-10-15T16:03:23;17.10;99.90
18658;DHT22;9458;50.942;5.074;2022-10-15T16:06:04;17.10;99.90
18658;DHT22;9458;50.942;5.074;2022-10-15T16:08:51;17.00;99.90
18658;DHT22;9458;50.942;5.074;2022-10-15T16:11:33;17.00;99.90
18658;DHT22;9458;50.942;5.074;2022-10-15T16:14:08;16.90;99.90
18658;DHT22;9458;50.942;5.074;2022-10-15T16:16:39;16.90;99.90
18658;DHT22;9458;50.942;5.074;2022-10-15T16:22:32;16.80;99.90
18658;DHT22;9458;50.942;5.074;2022-10-15T16:28:28;16.70;99.90
18658;DHT22;9458;50.942;5.074;2022-10-15T16:31:19;16.70;99.90
18658;DHT22;9458;50.942;5.074;2022-10-15T16:33:47;16.70;99.90
18658;DHT22;9458;50.942;5.074;2022-10-15T16:36:30;16.60;99.90